createdAt,value
2019-06-27T00:00:23.111Z,21.98
2019-06-27T00:01:23.108Z,21.94
2019-06-27T00:02:23.111Z,21.91
2019-06-27T00:03:23.111Z,21.98
2019-06-27T00:04:23.106Z,21.90
2019-06-27T00:05:23.108Z,21.99
2019-06-27T00:06:23.103Z,22.01
2019-06-27T00:07:23.100Z,22.04
2019-06-27T00:08:23.099Z,21.91
2019-06-27T00:09:23.165Z,21.94
2019-06-27T00:10:23.102Z,21.86
2019-06-27T00:11:23.100Z,21.75
2019-06-27T00:12:23.103Z,21.63
2019-06-27T00:13:23.101Z,21.58
2019-06-27T00:14:23.097Z,21.58
2019-06-27T00:15:23.096Z,21.43
2019-06-27T00:16:23.100Z,21.37
2019-06-27T00:17:23.097Z,21.34
2019-06-27T00:18:23.093Z,21.30
2019-06-27T00:19:23.092Z,21.34
2019-06-27T00:20:23.148Z,21.26
2019-06-27T00:21:23.088Z,21.18
2019-06-27T00:22:23.104Z,21.22
2019-06-27T00:23:23.089Z,21.15
2019-06-27T00:24:23.088Z,21.12
2019-06-27T00:25:23.086Z,21.03
2019-06-27T00:26:23.084Z,20.94
2019-06-27T00:27:23.081Z,20.98
2019-06-27T00:28:23.083Z,20.85
2019-06-27T00:29:23.080Z,20.81
2019-06-27T00:30:23.111Z,20.81
2019-06-27T00:31:23.088Z,20.73
2019-06-27T00:32:23.080Z,20.72
2019-06-27T00:33:23.078Z,20.63
2019-06-27T00:34:23.078Z,20.66
2019-06-27T00:35:23.079Z,20.64
2019-06-27T00:36:23.074Z,20.63
2019-06-27T00:37:23.075Z,20.64
2019-06-27T00:38:23.067Z,20.61
2019-06-27T00:39:23.065Z,20.58
2019-06-27T00:40:23.067Z,20.61
2019-06-27T00:41:23.067Z,20.53
2019-06-27T00:42:23.068Z,20.41
2019-06-27T00:43:23.067Z,20.44
2019-06-27T00:44:23.070Z,20.46
2019-06-27T00:45:23.061Z,20.42
2019-06-27T00:46:23.056Z,20.41
2019-06-27T00:47:23.055Z,20.33
2019-06-27T00:48:23.059Z,20.31
2019-06-27T00:49:23.055Z,20.33
2019-06-27T00:50:23.050Z,20.25
2019-06-27T00:51:23.050Z,20.10
2019-06-27T00:52:23.050Z,20.20
2019-06-27T00:53:23.048Z,20.20
2019-06-27T00:54:23.051Z,20.22
2019-06-27T00:55:23.059Z,20.20
2019-06-27T00:56:23.048Z,20.20
2019-06-27T00:57:23.051Z,20.16
2019-06-27T00:58:23.041Z,20.19
2019-06-27T00:59:23.039Z,20.12
2019-06-27T01:00:23.036Z,20.15
2019-06-27T01:01:23.032Z,20.07
2019-06-27T01:02:23.035Z,20.07
2019-06-27T01:03:23.033Z,20.02
2019-06-27T01:04:23.027Z,20.07
2019-06-27T01:05:23.024Z,20.02
2019-06-27T01:06:23.028Z,20.10
2019-06-27T01:07:23.033Z,20.02
2019-06-27T01:08:23.025Z,20.07
2019-06-27T01:09:23.025Z,19.98
2019-06-27T01:10:23.022Z,20.07
2019-06-27T01:11:23.018Z,19.86
2019-06-27T01:12:23.019Z,19.98
2019-06-27T01:13:23.016Z,19.86
2019-06-27T01:14:23.016Z,19.86
2019-06-27T01:15:23.015Z,19.78
2019-06-27T01:16:23.012Z,19.82
2019-06-27T01:17:23.011Z,19.76
2019-06-27T01:18:23.001Z,19.76
2019-06-27T01:19:23.002Z,19.80
2019-06-27T01:20:23.004Z,19.75
2019-06-27T01:21:23.001Z,19.68
2019-06-27T01:22:22.994Z,19.53
2019-06-27T01:23:22.993Z,19.53
2019-06-27T01:24:22.994Z,19.57
2019-06-27T01:25:22.994Z,19.42
2019-06-27T01:26:22.994Z,19.38
2019-06-27T01:27:30.062Z,19.40
2019-06-27T01:28:22.990Z,19.47
2019-06-27T01:29:23.040Z,19.42
2019-06-27T01:30:22.982Z,19.46
2019-06-27T01:31:22.979Z,19.40
2019-06-27T01:32:22.977Z,19.42
2019-06-27T01:33:22.973Z,19.43
2019-06-27T01:34:22.974Z,19.45
2019-06-27T01:35:22.974Z,19.25
2019-06-27T01:36:22.966Z,19.31
2019-06-27T01:37:22.963Z,19.28
2019-06-27T01:38:22.965Z,19.27
2019-06-27T01:39:22.963Z,19.27
2019-06-27T01:40:22.964Z,19.23
2019-06-27T01:41:22.962Z,19.30
2019-06-27T01:42:22.957Z,19.17
2019-06-27T01:43:22.952Z,19.15
2019-06-27T01:44:22.954Z,19.06
2019-06-27T01:45:22.951Z,19.12
2019-06-27T01:46:22.945Z,19.07
2019-06-27T01:47:22.944Z,19.12
2019-06-27T01:48:22.941Z,19.10
2019-06-27T01:49:22.935Z,19.05
2019-06-27T01:50:22.938Z,18.97
2019-06-27T01:51:22.936Z,19.07
2019-06-27T01:52:22.929Z,19.06
2019-06-27T01:53:22.931Z,19.07
2019-06-27T01:54:22.934Z,19.06
2019-06-27T01:55:22.925Z,19.02
2019-06-27T01:56:22.926Z,19.07
2019-06-27T01:57:22.924Z,19.13
2019-06-27T01:58:22.918Z,19.07
2019-06-27T01:59:22.915Z,19.07
2019-06-27T02:00:22.913Z,19.05
2019-06-27T02:01:22.909Z,19.07
2019-06-27T02:02:22.910Z,18.96
2019-06-27T02:03:22.908Z,18.99
2019-06-27T02:04:22.905Z,18.97
2019-06-27T02:05:22.902Z,18.97
2019-06-27T02:06:22.895Z,18.94
2019-06-27T02:07:22.891Z,18.93
2019-06-27T02:08:22.893Z,18.91
2019-06-27T02:09:22.894Z,18.87
2019-06-27T02:10:22.885Z,18.87
2019-06-27T02:11:22.881Z,18.86
2019-06-27T02:12:22.883Z,18.83
2019-06-27T02:13:22.884Z,18.87
2019-06-27T02:14:22.880Z,18.87
2019-06-27T02:15:22.885Z,18.76
2019-06-27T02:16:22.876Z,18.86
2019-06-27T02:17:22.877Z,18.84
2019-06-27T02:18:22.866Z,18.83
2019-06-27T02:19:22.865Z,18.83
2019-06-27T02:20:22.858Z,18.72
2019-06-27T02:21:22.855Z,18.83
2019-06-27T02:22:22.859Z,18.75
2019-06-27T02:23:22.856Z,18.74
2019-06-27T02:24:22.851Z,18.69
2019-06-27T02:25:22.846Z,18.66
2019-06-27T02:26:22.848Z,18.68
2019-06-27T02:27:22.845Z,18.60
2019-06-27T02:28:22.847Z,18.74
2019-06-27T02:29:22.841Z,18.68
2019-06-27T02:30:22.836Z,18.66
2019-06-27T02:31:22.843Z,18.57
2019-06-27T02:32:22.831Z,18.71
2019-06-27T02:33:22.837Z,18.62
2019-06-27T02:34:22.828Z,18.72
2019-06-27T02:35:22.828Z,18.65
2019-06-27T02:36:22.822Z,18.69
2019-06-27T02:37:22.821Z,18.66
2019-06-27T02:38:22.812Z,18.60
2019-06-27T02:39:22.808Z,18.62
2019-06-27T02:40:22.811Z,18.66
2019-06-27T02:41:22.813Z,18.68
2019-06-27T02:42:22.798Z,18.60
2019-06-27T02:43:22.797Z,18.64
2019-06-27T02:44:22.798Z,18.56
2019-06-27T02:45:22.805Z,18.64
2019-06-27T02:46:22.797Z,18.51
2019-06-27T02:47:22.793Z,18.64
2019-06-27T02:48:22.796Z,18.59
2019-06-27T02:49:22.786Z,18.53
2019-06-27T02:50:22.777Z,18.53
2019-06-27T02:51:22.776Z,18.51
2019-06-27T02:52:22.780Z,18.59
2019-06-27T02:53:22.776Z,18.51
2019-06-27T02:54:22.774Z,18.57
2019-06-27T02:55:22.774Z,18.56
2019-06-27T02:56:22.766Z,18.62
2019-06-27T02:57:22.761Z,18.71
2019-06-27T02:58:31.047Z,18.71
2019-06-27T02:59:22.760Z,18.69
2019-06-27T03:00:22.755Z,18.64
2019-06-27T03:01:22.760Z,18.68
2019-06-27T03:02:22.751Z,18.68
2019-06-27T03:03:22.743Z,18.65
2019-06-27T03:04:22.741Z,18.60
2019-06-27T03:05:22.737Z,18.59
2019-06-27T03:06:22.740Z,18.69
2019-06-27T03:07:22.736Z,18.68
2019-06-27T03:08:22.764Z,18.68
2019-06-27T03:09:22.741Z,18.76
2019-06-27T03:10:22.731Z,18.78
2019-06-27T03:11:22.722Z,18.79
2019-06-27T03:12:22.725Z,18.78
2019-06-27T03:13:22.725Z,18.82
2019-06-27T03:14:22.715Z,18.83
2019-06-27T03:15:22.724Z,18.89
2019-06-27T03:16:22.706Z,18.90
2019-06-27T03:17:22.706Z,18.87
2019-06-27T03:18:22.707Z,18.90
2019-06-27T03:19:22.705Z,18.89
2019-06-27T03:20:22.703Z,18.94
2019-06-27T03:21:22.722Z,18.93
2019-06-27T03:22:22.696Z,18.94
2019-06-27T03:23:22.745Z,18.96
2019-06-27T03:24:22.698Z,18.97
2019-06-27T03:25:22.685Z,18.94
2019-06-27T03:26:22.696Z,18.94
2019-06-27T03:27:22.686Z,18.99
2019-06-27T03:28:22.678Z,18.96
2019-06-27T03:29:22.679Z,18.84
2019-06-27T03:30:22.676Z,18.97
2019-06-27T03:31:22.676Z,18.97
2019-06-27T03:32:22.670Z,18.97
2019-06-27T03:33:22.670Z,18.97
2019-06-27T03:34:22.660Z,18.91
2019-06-27T03:35:22.660Z,18.84
2019-06-27T03:36:22.657Z,18.79
2019-06-27T03:37:22.652Z,18.86
2019-06-27T03:38:22.654Z,18.84
2019-06-27T03:39:22.651Z,18.90
2019-06-27T03:40:22.679Z,18.78
2019-06-27T03:41:22.656Z,18.89
2019-06-27T03:42:22.641Z,18.87
2019-06-27T03:43:22.642Z,18.84
2019-06-27T03:44:22.640Z,18.87
2019-06-27T03:45:22.639Z,18.87
2019-06-27T03:46:22.630Z,18.84
2019-06-27T03:47:22.627Z,18.86
2019-06-27T03:48:22.626Z,18.94
2019-06-27T03:49:22.623Z,18.96
2019-06-27T03:50:22.620Z,19.02
2019-06-27T03:51:22.619Z,19.01
2019-06-27T03:52:22.619Z,18.94
2019-06-27T03:53:22.617Z,18.89
2019-06-27T03:54:22.609Z,18.87
2019-06-27T03:55:22.607Z,18.84
2019-06-27T03:56:22.602Z,18.93
2019-06-27T03:57:22.598Z,18.96
2019-06-27T03:58:22.601Z,18.96
2019-06-27T03:59:22.599Z,18.93
2019-06-27T04:00:22.592Z,19.01
2019-06-27T04:01:22.587Z,18.97
2019-06-27T04:02:22.593Z,19.06
2019-06-27T04:03:22.597Z,19.01
2019-06-27T04:04:22.588Z,18.99
2019-06-27T04:05:22.585Z,18.96
2019-06-27T04:06:22.578Z,18.97
2019-06-27T04:07:22.577Z,18.99
2019-06-27T04:08:22.576Z,18.93
2019-06-27T04:09:22.572Z,19.01
2019-06-27T04:10:22.573Z,19.02
2019-06-27T04:11:22.593Z,19.05
2019-06-27T04:12:22.574Z,18.97
2019-06-27T04:13:22.563Z,19.02
2019-06-27T04:14:22.560Z,19.12
2019-06-27T04:15:22.562Z,19.05
2019-06-27T04:16:22.558Z,19.20
2019-06-27T04:17:22.553Z,19.01
2019-06-27T04:18:22.552Z,19.02
2019-06-27T04:19:22.545Z,19.09
2019-06-27T04:20:22.546Z,19.07
2019-06-27T04:21:22.542Z,19.09
2019-06-27T04:22:22.545Z,19.16
2019-06-27T04:23:22.568Z,19.20
2019-06-27T04:24:22.539Z,19.25
2019-06-27T04:25:22.581Z,19.25
2019-06-27T04:26:22.534Z,19.24
2019-06-27T04:27:22.529Z,19.30
2019-06-27T04:28:22.528Z,19.31
2019-06-27T04:29:33.570Z,19.35
2019-06-27T04:30:22.529Z,19.35
2019-06-27T04:31:22.520Z,19.40
2019-06-27T04:32:22.534Z,19.46
2019-06-27T04:33:22.536Z,19.43
2019-06-27T04:34:22.513Z,19.34
2019-06-27T04:35:22.511Z,19.31
2019-06-27T04:36:22.512Z,19.38
2019-06-27T04:37:22.529Z,19.40
2019-06-27T04:38:22.502Z,19.40
2019-06-27T04:39:22.504Z,19.43
2019-06-27T04:40:22.497Z,19.46
2019-06-27T04:41:22.495Z,19.42
2019-06-27T04:42:22.498Z,19.47
2019-06-27T04:43:22.517Z,19.43
2019-06-27T04:44:22.494Z,19.49
2019-06-27T04:45:22.491Z,19.50
2019-06-27T04:46:22.486Z,19.47
2019-06-27T04:47:22.481Z,19.43
2019-06-27T04:48:22.483Z,19.42
2019-06-27T04:49:22.482Z,19.45
2019-06-27T04:50:22.489Z,19.52
2019-06-27T04:51:22.473Z,19.57
2019-06-27T04:52:22.477Z,19.53
2019-06-27T04:53:22.470Z,19.58
2019-06-27T04:54:22.475Z,19.70
2019-06-27T04:55:22.471Z,19.72
2019-06-27T04:56:22.472Z,19.68
2019-06-27T04:57:22.464Z,19.78
2019-06-27T04:58:22.457Z,19.75
2019-06-27T04:59:22.454Z,19.94
2019-06-27T05:00:22.459Z,19.94
2019-06-27T05:01:22.453Z,19.89
2019-06-27T05:02:22.455Z,19.79
2019-06-27T05:03:22.453Z,19.71
2019-06-27T05:04:22.448Z,19.76
2019-06-27T05:05:22.446Z,19.68
2019-06-27T05:06:22.448Z,19.71
2019-06-27T05:07:22.446Z,19.75
2019-06-27T05:08:22.442Z,19.85
2019-06-27T05:09:22.441Z,19.78
2019-06-27T05:10:22.437Z,19.75
2019-06-27T05:11:22.433Z,19.80
2019-06-27T05:12:22.435Z,19.68
2019-06-27T05:13:22.431Z,19.78
2019-06-27T05:14:22.433Z,19.78
2019-06-27T05:15:22.432Z,19.89
2019-06-27T05:16:22.432Z,19.98
2019-06-27T05:17:22.429Z,20.00
2019-06-27T05:18:22.423Z,20.00
2019-06-27T05:19:22.429Z,20.10
2019-06-27T05:20:22.438Z,20.22
2019-06-27T05:21:22.422Z,20.37
2019-06-27T05:22:22.416Z,20.40
2019-06-27T05:23:22.422Z,20.78
2019-06-27T05:24:22.414Z,20.90
2019-06-27T05:25:22.409Z,21.31
2019-06-27T05:26:22.414Z,21.96
2019-06-27T05:27:22.411Z,22.49
2019-06-27T05:28:22.416Z,22.86
2019-06-27T05:29:22.410Z,23.34
2019-06-27T05:30:22.404Z,23.45
2019-06-27T05:31:22.406Z,23.41
2019-06-27T05:32:22.408Z,23.29
2019-06-27T05:33:22.414Z,22.85
2019-06-27T05:34:22.411Z,22.67
2019-06-27T05:35:22.411Z,22.97
2019-06-27T05:36:22.412Z,22.82
2019-06-27T05:37:22.408Z,23.41
2019-06-27T05:38:22.413Z,23.79
2019-06-27T05:39:22.414Z,23.99
2019-06-27T05:40:22.421Z,23.56
2019-06-27T05:41:22.414Z,24.05
2019-06-27T05:42:22.410Z,24.51
2019-06-27T05:43:22.411Z,25.01
2019-06-27T05:44:22.414Z,25.29
2019-06-27T05:45:22.413Z,25.72
2019-06-27T05:46:22.422Z,25.90
2019-06-27T05:47:22.422Z,26.24
2019-06-27T05:48:22.432Z,26.42
2019-06-27T05:49:22.429Z,26.79
2019-06-27T05:50:22.428Z,26.96
2019-06-27T05:51:22.445Z,26.86
2019-06-27T05:52:22.466Z,27.06
2019-06-27T05:53:22.440Z,27.03
2019-06-27T05:54:22.441Z,26.71
2019-06-27T05:55:22.445Z,26.83
2019-06-27T05:56:22.444Z,26.97
2019-06-27T05:57:22.448Z,27.20
2019-06-27T05:58:22.456Z,27.63
2019-06-27T05:59:22.462Z,27.96
2019-06-27T06:00:28.992Z,28.42
2019-06-27T06:01:22.477Z,28.43
2019-06-27T06:02:22.468Z,28.85
2019-06-27T06:03:22.475Z,28.72
2019-06-27T06:04:24.089Z,28.45
2019-06-27T06:05:22.488Z,28.52
2019-06-27T06:06:22.512Z,28.46
2019-06-27T06:07:22.500Z,28.45
2019-06-27T06:08:22.501Z,28.32
2019-06-27T06:09:22.506Z,28.17
2019-06-27T06:10:22.522Z,28.52
2019-06-27T06:11:22.561Z,28.70
2019-06-27T06:12:22.538Z,29.37
2019-06-27T06:13:22.529Z,29.91
2019-06-27T06:14:22.532Z,29.00
2019-06-27T06:15:22.540Z,27.78
2019-06-27T06:16:22.542Z,28.28
2019-06-27T06:17:22.546Z,28.85
2019-06-27T06:18:22.560Z,29.35
2019-06-27T06:19:22.564Z,29.54
2019-06-27T06:20:22.573Z,30.25
2019-06-27T06:21:22.582Z,30.61
2019-06-27T06:22:22.580Z,31.05
2019-06-27T06:23:22.601Z,30.90
2019-06-27T06:24:22.598Z,31.18
2019-06-27T06:25:22.605Z,30.11
2019-06-27T06:26:22.613Z,29.45
2019-06-27T06:27:22.616Z,28.69
2019-06-27T06:28:22.620Z,28.69
2019-06-27T06:29:22.626Z,28.79
2019-06-27T06:30:22.639Z,28.55
2019-06-27T06:31:22.647Z,28.18
2019-06-27T06:32:22.681Z,28.50
2019-06-27T06:33:22.657Z,28.17
2019-06-27T06:34:22.662Z,27.71
2019-06-27T06:35:22.669Z,27.33
2019-06-27T06:36:22.678Z,26.91
2019-06-27T06:37:22.683Z,26.35
2019-06-27T06:38:22.695Z,26.12
2019-06-27T06:39:22.701Z,26.23
2019-06-27T06:40:22.701Z,26.88
2019-06-27T06:41:22.710Z,27.50
2019-06-27T06:42:22.716Z,27.72
2019-06-27T06:43:22.750Z,28.32
2019-06-27T06:44:22.730Z,28.79
2019-06-27T06:45:22.732Z,28.97
2019-06-27T06:46:22.735Z,29.18
2019-06-27T06:47:22.746Z,29.58
2019-06-27T06:48:22.748Z,29.57
2019-06-27T06:49:22.753Z,29.60
2019-06-27T06:50:23.632Z,30.19
2019-06-27T06:51:22.770Z,29.97
2019-06-27T06:52:22.782Z,28.76
2019-06-27T06:53:22.787Z,29.20
2019-06-27T06:54:22.798Z,29.10
2019-06-27T06:55:22.808Z,29.37
2019-06-27T06:56:22.810Z,29.52
2019-06-27T06:57:22.817Z,30.10
2019-06-27T06:58:22.820Z,30.70
2019-06-27T06:59:22.829Z,31.15
2019-06-27T07:00:22.835Z,31.87
2019-06-27T07:01:22.848Z,32.28
2019-06-27T07:02:22.852Z,31.91
2019-06-27T07:03:22.864Z,31.69
2019-06-27T07:04:22.873Z,32.10
2019-06-27T07:05:22.974Z,32.65
2019-06-27T07:06:22.885Z,33.11
2019-06-27T07:07:22.895Z,33.65
2019-06-27T07:08:22.899Z,34.12
2019-06-27T07:09:22.912Z,34.37
2019-06-27T07:10:22.924Z,34.49
2019-06-27T07:11:22.934Z,34.56
2019-06-27T07:12:22.941Z,34.99
2019-06-27T07:13:22.950Z,35.12
2019-06-27T07:14:22.963Z,35.02
2019-06-27T07:15:22.975Z,35.15
2019-06-27T07:16:22.994Z,35.64
2019-06-27T07:17:22.998Z,34.58
2019-06-27T07:18:23.004Z,33.65
2019-06-27T07:19:23.017Z,33.96
2019-06-27T07:20:23.026Z,34.26
2019-06-27T07:21:23.037Z,34.18
2019-06-27T07:22:23.051Z,34.03
2019-06-27T07:23:23.064Z,34.26
2019-06-27T07:24:23.085Z,33.99
2019-06-27T07:25:23.084Z,34.18
2019-06-27T07:26:23.092Z,34.24
2019-06-27T07:27:23.103Z,33.74
2019-06-27T07:28:23.119Z,33.43
2019-06-27T07:29:23.129Z,33.40
2019-06-27T07:30:23.141Z,33.00
2019-06-27T07:31:23.150Z,32.62
2019-06-27T07:32:23.165Z,32.47
2019-06-27T07:33:23.175Z,32.06
2019-06-27T07:34:23.196Z,31.90
2019-06-27T07:35:23.204Z,32.16
2019-06-27T07:36:23.221Z,32.93
2019-06-27T07:37:23.232Z,33.65
2019-06-27T07:38:23.234Z,34.21
2019-06-27T07:39:23.252Z,33.14
2019-06-27T07:40:23.256Z,32.71
2019-06-27T07:41:23.267Z,32.58
2019-06-27T07:42:23.302Z,32.85
2019-06-27T07:43:23.317Z,32.36
2019-06-27T07:44:23.302Z,32.12
2019-06-27T07:45:23.315Z,31.87
2019-06-27T07:46:25.511Z,31.98
2019-06-27T07:47:23.343Z,32.07
2019-06-27T07:48:23.358Z,32.07
2019-06-27T07:49:23.381Z,31.76
2019-06-27T07:50:23.378Z,31.98
2019-06-27T07:51:23.389Z,32.63
2019-06-27T07:52:23.399Z,33.47
2019-06-27T07:53:23.413Z,33.82
2019-06-27T07:54:23.496Z,34.06
2019-06-27T07:55:23.442Z,34.60
2019-06-27T07:56:23.447Z,35.09
2019-06-27T07:57:23.458Z,34.58
2019-06-27T07:58:23.467Z,34.76
2019-06-27T07:59:23.485Z,34.80
2019-06-27T08:00:23.495Z,34.83
2019-06-27T08:01:34.367Z,34.36
2019-06-27T08:02:23.516Z,33.86
2019-06-27T08:03:23.533Z,33.70
2019-06-27T08:04:23.545Z,33.82
2019-06-27T08:05:23.556Z,33.68
2019-06-27T08:06:23.569Z,33.77
2019-06-27T08:07:23.588Z,33.77
2019-06-27T08:08:23.597Z,33.75
2019-06-27T08:09:23.607Z,34.42
2019-06-27T08:10:23.616Z,34.48
2019-06-27T08:11:23.641Z,34.91
2019-06-27T08:12:23.644Z,35.64
2019-06-27T08:13:23.655Z,36.30
2019-06-27T08:14:23.680Z,35.99
2019-06-27T08:15:23.686Z,36.74
2019-06-27T08:16:23.695Z,36.16
2019-06-27T08:17:23.710Z,35.99
2019-06-27T08:18:23.723Z,36.35
2019-06-27T08:19:23.739Z,36.72
2019-06-27T08:20:23.750Z,36.89
2019-06-27T08:21:23.762Z,35.87
2019-06-27T08:22:23.774Z,34.86
2019-06-27T08:23:37.181Z,33.70
2019-06-27T08:24:23.828Z,33.62
2019-06-27T08:25:23.813Z,32.93
2019-06-27T08:26:23.832Z,33.07
2019-06-27T08:27:23.848Z,33.00
2019-06-27T08:28:23.863Z,33.82
2019-06-27T08:29:23.875Z,34.46
2019-06-27T08:30:23.887Z,35.15
2019-06-27T08:31:23.901Z,36.11
2019-06-27T08:32:23.922Z,36.67
2019-06-27T08:33:23.928Z,36.31
2019-06-27T08:34:23.939Z,36.56
2019-06-27T08:35:23.955Z,36.37
2019-06-27T08:36:23.973Z,34.33
2019-06-27T08:37:23.979Z,34.01
2019-06-27T08:38:23.998Z,33.79
2019-06-27T08:39:24.015Z,34.61
2019-06-27T08:40:24.026Z,35.34
2019-06-27T08:41:24.038Z,35.56
2019-06-27T08:42:24.068Z,35.50
2019-06-27T08:43:24.072Z,35.68
2019-06-27T08:44:24.081Z,36.18
2019-06-27T08:45:24.094Z,37.05
2019-06-27T08:46:24.113Z,36.74
2019-06-27T08:47:24.129Z,36.50
2019-06-27T08:48:24.139Z,36.28
2019-06-27T08:49:24.168Z,35.85
2019-06-27T08:50:24.177Z,35.64
2019-06-27T08:51:24.190Z,36.46
2019-06-27T08:52:24.200Z,36.22
2019-06-27T08:53:24.272Z,36.48
2019-06-27T08:54:24.226Z,36.94
2019-06-27T08:55:24.241Z,37.38
2019-06-27T08:56:24.257Z,38.00
2019-06-27T08:57:24.272Z,38.47
2019-06-27T08:58:24.292Z,38.93
2019-06-27T08:59:24.306Z,39.46
2019-06-27T09:00:24.327Z,39.90
2019-06-27T09:01:24.341Z,39.72
2019-06-27T09:02:24.355Z,39.63
2019-06-27T09:03:24.369Z,39.14
2019-06-27T09:04:24.393Z,39.05
2019-06-27T09:05:24.407Z,39.50
2019-06-27T09:06:24.417Z,39.69
2019-06-27T09:07:24.444Z,40.38
2019-06-27T09:08:24.451Z,40.45
2019-06-27T09:09:24.476Z,40.61
2019-06-27T09:10:24.486Z,39.70
2019-06-27T09:11:24.506Z,39.56
2019-06-27T09:12:24.523Z,39.16
2019-06-27T09:13:24.548Z,39.51
2019-06-27T09:14:24.554Z,39.22
2019-06-27T09:15:24.571Z,38.65
2019-06-27T09:16:24.606Z,38.33
2019-06-27T09:17:24.603Z,38.53
2019-06-27T09:18:24.624Z,38.74
2019-06-27T09:19:24.643Z,38.89
2019-06-27T09:20:24.669Z,39.34
2019-06-27T09:21:24.673Z,39.66
2019-06-27T09:22:24.694Z,40.38
2019-06-27T09:23:24.727Z,40.98
2019-06-27T09:24:24.754Z,40.66
2019-06-27T09:25:24.749Z,40.46
2019-06-27T09:26:24.777Z,38.77
2019-06-27T09:27:24.781Z,36.77
2019-06-27T09:28:24.798Z,34.05
2019-06-27T09:29:24.817Z,33.77
2019-06-27T09:30:24.892Z,34.34
2019-06-27T09:31:24.856Z,34.45
2019-06-27T09:32:26.353Z,34.98
2019-06-27T09:33:24.894Z,34.88
2019-06-27T09:34:24.899Z,35.31
2019-06-27T09:35:24.917Z,36.16
2019-06-27T09:36:24.937Z,36.83
2019-06-27T09:37:24.952Z,36.62
2019-06-27T09:38:24.967Z,36.00
2019-06-27T09:39:27.093Z,36.57
2019-06-27T09:40:25.003Z,36.64
2019-06-27T09:41:25.046Z,35.83
2019-06-27T09:42:25.050Z,35.85
2019-06-27T09:43:25.053Z,35.95
2019-06-27T09:44:25.071Z,35.66
2019-06-27T09:45:25.087Z,35.50
2019-06-27T09:46:25.101Z,34.72
2019-06-27T09:47:25.118Z,34.93
2019-06-27T09:48:25.129Z,35.49
2019-06-27T09:49:25.152Z,35.52
2019-06-27T09:50:25.168Z,35.85
2019-06-27T09:51:25.181Z,36.02
2019-06-27T09:52:25.195Z,35.65
2019-06-27T09:53:25.211Z,36.08
2019-06-27T09:54:25.230Z,36.52
2019-06-27T09:55:25.246Z,36.90
2019-06-27T09:56:25.266Z,37.23
2019-06-27T09:57:25.282Z,37.62
2019-06-27T09:58:25.293Z,38.16
2019-06-27T09:59:25.310Z,38.52
2019-06-27T10:00:25.362Z,39.17
2019-06-27T10:01:25.419Z,39.51
2019-06-27T10:02:40.514Z,39.66
2019-06-27T10:03:25.379Z,39.87
2019-06-27T10:04:25.394Z,39.81
2019-06-27T10:05:25.409Z,39.07
2019-06-27T10:06:26.391Z,38.04
2019-06-27T10:07:25.440Z,36.99
2019-06-27T10:08:25.462Z,37.11
2019-06-27T10:09:25.479Z,36.49
2019-06-27T10:10:25.495Z,36.97
2019-06-27T10:11:25.506Z,37.62
2019-06-27T10:12:40.941Z,38.25
2019-06-27T10:13:25.557Z,38.68
2019-06-27T10:14:25.562Z,39.28
2019-06-27T10:15:25.579Z,39.05
2019-06-27T10:16:25.592Z,38.92
2019-06-27T10:17:25.613Z,39.36
2019-06-27T10:18:25.628Z,38.89
2019-06-27T10:19:25.646Z,39.05
2019-06-27T10:20:25.667Z,37.25
2019-06-27T10:21:25.682Z,37.28
2019-06-27T10:22:25.695Z,37.25
2019-06-27T10:23:25.750Z,36.93
2019-06-27T10:24:25.733Z,36.62
2019-06-27T10:25:25.750Z,36.28
2019-06-27T10:26:25.763Z,36.74
2019-06-27T10:27:25.780Z,36.48
2019-06-27T10:28:25.795Z,36.82
2019-06-27T10:29:25.821Z,37.31
2019-06-27T10:30:25.837Z,38.06
2019-06-27T10:31:25.850Z,38.84
2019-06-27T10:32:25.865Z,39.44
2019-06-27T10:33:25.880Z,39.92
2019-06-27T10:34:25.892Z,39.63
2019-06-27T10:35:25.910Z,38.74
2019-06-27T10:36:25.931Z,38.72
2019-06-27T10:37:25.947Z,39.19
2019-06-27T10:38:25.968Z,39.09
2019-06-27T10:39:25.994Z,37.93
2019-06-27T10:40:26.002Z,37.25
2019-06-27T10:41:26.013Z,37.68
2019-06-27T10:42:26.034Z,38.26
2019-06-27T10:43:26.053Z,38.86
2019-06-27T10:44:26.066Z,39.44
2019-06-27T10:45:26.082Z,39.99
2019-06-27T10:46:26.118Z,40.58
2019-06-27T10:47:26.117Z,40.49
2019-06-27T10:48:26.129Z,39.96
2019-06-27T10:49:26.144Z,39.70
2019-06-27T10:50:26.172Z,38.30
2019-06-27T10:51:26.184Z,37.04
2019-06-27T10:52:26.204Z,35.95
2019-06-27T10:53:26.219Z,35.71
2019-06-27T10:54:26.233Z,36.27
2019-06-27T10:55:26.250Z,36.74
2019-06-27T10:56:26.277Z,36.65
2019-06-27T10:57:26.283Z,36.30
2019-06-27T10:58:26.297Z,35.17
2019-06-27T10:59:26.314Z,34.34
2019-06-27T11:00:26.327Z,34.21
2019-06-27T11:01:26.389Z,34.52
2019-06-27T11:02:26.365Z,35.28
2019-06-27T11:03:26.378Z,36.30
2019-06-27T11:04:26.395Z,36.96
2019-06-27T11:05:26.410Z,37.63
2019-06-27T11:06:26.430Z,37.99
2019-06-27T11:07:26.436Z,38.58
2019-06-27T11:08:26.455Z,39.07
2019-06-27T11:09:26.473Z,39.63
2019-06-27T11:10:26.488Z,39.63
2019-06-27T11:11:26.506Z,38.92
2019-06-27T11:12:26.516Z,38.09
2019-06-27T11:13:26.542Z,37.73
2019-06-27T11:14:26.551Z,37.80
2019-06-27T11:15:26.581Z,38.12
2019-06-27T11:16:26.605Z,38.19
2019-06-27T11:17:26.597Z,38.06
2019-06-27T11:18:26.607Z,38.06
2019-06-27T11:19:26.621Z,38.26
2019-06-27T11:20:26.648Z,38.44
2019-06-27T11:21:26.657Z,36.94
2019-06-27T11:22:26.681Z,35.49
2019-06-27T11:23:26.693Z,34.95
2019-06-27T11:24:26.706Z,33.78
2019-06-27T11:25:26.716Z,32.99
2019-06-27T11:26:26.730Z,32.88
2019-06-27T11:27:27.542Z,32.50
2019-06-27T11:28:26.761Z,31.42
2019-06-27T11:29:26.775Z,31.30
2019-06-27T11:30:26.781Z,30.76
2019-06-27T11:31:26.800Z,30.13
2019-06-27T11:32:26.812Z,29.84
2019-06-27T11:33:32.442Z,30.03
2019-06-27T11:34:26.834Z,30.13
2019-06-27T11:35:26.846Z,30.30
2019-06-27T11:36:26.856Z,30.40
2019-06-27T11:37:26.864Z,30.54
2019-06-27T11:38:26.869Z,30.64
2019-06-27T11:39:26.879Z,30.81
2019-06-27T11:40:26.887Z,30.85
2019-06-27T11:41:26.892Z,30.83
2019-06-27T11:42:29.796Z,30.67
2019-06-27T11:43:26.914Z,30.59
2019-06-27T11:44:26.918Z,30.48
2019-06-27T11:45:26.952Z,30.48
2019-06-27T11:46:26.939Z,30.53
2019-06-27T11:47:26.945Z,30.61
2019-06-27T11:48:26.954Z,30.54
2019-06-27T11:49:26.961Z,30.42
2019-06-27T11:50:26.967Z,30.37
2019-06-27T11:51:26.975Z,30.40
2019-06-27T11:52:26.977Z,30.16
2019-06-27T11:53:26.983Z,30.22
2019-06-27T11:54:26.995Z,30.26
2019-06-27T11:55:27.002Z,29.97
2019-06-27T11:56:27.002Z,29.44
2019-06-27T11:57:27.010Z,29.33
2019-06-27T11:58:27.012Z,29.48
2019-06-27T11:59:27.018Z,29.57
2019-06-27T12:00:27.028Z,29.57
2019-06-27T12:01:27.036Z,29.66
2019-06-27T12:02:27.031Z,29.67
2019-06-27T12:03:27.042Z,29.69
2019-06-27T12:04:27.046Z,29.84
2019-06-27T12:05:27.077Z,29.91
2019-06-27T12:06:27.060Z,30.03
2019-06-27T12:07:27.071Z,30.13
2019-06-27T12:08:27.070Z,30.16
2019-06-27T12:09:27.076Z,30.29
2019-06-27T12:10:27.077Z,30.22
2019-06-27T12:11:27.081Z,30.11
2019-06-27T12:12:27.085Z,30.10
2019-06-27T12:13:27.087Z,30.11
2019-06-27T12:14:27.099Z,29.99
2019-06-27T12:15:27.105Z,29.82
2019-06-27T12:16:27.106Z,29.85
2019-06-27T12:17:27.110Z,29.71
2019-06-27T12:18:27.118Z,29.57
2019-06-27T12:19:27.122Z,29.37
2019-06-27T12:20:27.128Z,29.10
2019-06-27T12:21:27.145Z,29.14
2019-06-27T12:22:27.134Z,28.85
2019-06-27T12:23:27.137Z,28.65
2019-06-27T12:24:27.147Z,28.50
2019-06-27T12:25:27.146Z,28.33
2019-06-27T12:26:27.153Z,28.43
2019-06-27T12:27:27.159Z,28.50
2019-06-27T12:28:27.166Z,28.62
2019-06-27T12:29:27.171Z,28.70
2019-06-27T12:30:27.171Z,28.80
2019-06-27T12:31:27.173Z,28.85
2019-06-27T12:32:27.181Z,29.03
2019-06-27T12:33:27.189Z,29.00
2019-06-27T12:34:27.186Z,28.72
2019-06-27T12:35:27.189Z,28.67
2019-06-27T12:36:27.190Z,28.54
2019-06-27T12:37:27.193Z,28.61
2019-06-27T12:38:27.207Z,28.70
2019-06-27T12:39:27.207Z,28.82
2019-06-27T12:40:27.217Z,28.83
2019-06-27T12:41:27.214Z,28.74
2019-06-27T12:42:32.542Z,28.64
2019-06-27T12:43:27.225Z,28.54
2019-06-27T12:44:27.225Z,28.38
2019-06-27T12:45:27.229Z,28.43
2019-06-27T12:46:27.237Z,28.54
2019-06-27T12:47:27.239Z,28.64
2019-06-27T12:48:27.242Z,28.76
2019-06-27T12:49:44.850Z,28.77
2019-06-27T12:50:27.250Z,28.77
2019-06-27T12:51:27.254Z,28.72
2019-06-27T12:52:27.256Z,28.72